Time;durP1;ratioP1;P1;durP2;ratioP2;P2;SDS_P1;SDS_P2;PMS_P1;PMS_P2;Temp;Humidity;BMP_temperature;BMP_pressure;BME280_temperature;BME280_humidity;BME280_pressure;Samples;Min_cycle;Max_cycle;Signal;HPM_P1;HPM_P2
2023/05/13 00:01:53;;;;;;;0.00;0.00;;;9.00;99.90;;;;;;5090801;28;20186;-76
2023/05/13 00:04:19;;;;;;;0.10;0.10;;;9.00;99.90;;;;;;5095347;28;20028;-75
2023/05/13 00:06:44;;;;;;;0.00;0.00;;;8.90;99.90;;;;;;5097080;28;20120;-75
2023/05/13 00:09:10;;;;;;;0.00;0.00;;;9.00;99.90;;;;;;5094477;28;20076;-76
2023/05/13 00:11:36;;;;;;;0.10;0.10;;;8.90;99.90;;;;;;5099803;28;20117;-78
2023/05/13 00:14:02;;;;;;;0.10;0.10;;;8.90;99.90;;;;;;5098924;28;20032;-78
2023/05/13 00:16:28;;;;;;;0.10;0.10;;;8.90;99.90;;;;;;5098956;28;20032;-74
2023/05/13 00:18:55;;;;;;;0.10;0.10;;;8.90;99.90;;;;;;5099593;28;20036;-75
2023/05/13 00:21:22;;;;;;;0.10;0.10;;;8.90;99.90;;;;;;5102277;28;20047;-76
2023/05/13 00:23:50;;;;;;;0.10;0.10;;;8.90;99.90;;;;;;5102925;28;20040;-78
2023/05/13 00:26:16;;;;;;;0.10;0.10;;;9.00;99.90;;;;;;5101759;28;20089;-78
2023/05/13 00:28:42;;;;;;;0.10;0.10;;;9.00;99.90;;;;;;5099583;28;20042;-76
2023/05/13 00:31:08;;;;;;;0.10;0.10;;;9.00;99.90;;;;;;5099577;28;20080;-77
2023/05/13 00:33:35;;;;;;;0.10;0.10;;;9.00;99.90;;;;;;5099472;28;20527;-74
2023/05/13 00:36:01;;;;;;;0.10;0.10;;;9.00;99.90;;;;;;5095163;28;20008;-76
2023/05/13 00:38:26;;;;;;;0.00;0.00;;;9.00;99.90;;;;;;5090780;28;20223;-75
2023/05/13 00:40:52;;;;;;;0.00;0.00;;;9.00;99.90;;;;;;5097193;28;20054;-75
2023/05/13 00:43:18;;;;;;;0.40;0.40;;;8.90;99.90;;;;;;5095559;28;20139;-79
2023/05/13 00:45:43;;;;;;;0.10;0.10;;;9.00;99.90;;;;;;5096343;28;20197;-75
2023/05/13 00:48:10;;;;;;;0.10;0.10;;;9.00;99.90;;;;;;5095100;28;20035;-74
2023/05/13 00:50:36;;;;;;;0.08;0.08;;;8.90;99.90;;;;;;5097338;28;20012;-74
2023/05/13 00:53:03;;;;;;;0.10;0.10;;;9.00;99.90;;;;;;5096171;28;20536;-75
2023/05/13 00:55:29;;;;;;;0.10;0.10;;;8.90;99.90;;;;;;5096299;28;20689;-76
2023/05/13 00:57:55;;;;;;;0.30;0.30;;;8.80;99.90;;;;;;5093714;28;20085;-75
2023/05/13 01:00:21;;;;;;;0.52;0.52;;;8.80;99.90;;;;;;5095440;28;20031;-77
2023/05/13 01:03:04;;;;;;;0.10;0.10;;;8.80;99.90;;;;;;5095652;28;20025;-77
2023/05/13 01:05:51;;;;;;;0.10;0.10;;;8.90;99.90;;;;;;5096969;28;20038;-78
2023/05/13 01:08:44;;;;;;;0.10;0.10;;;8.90;99.90;;;;;;5100226;28;20032;-75
2023/05/13 01:11:14;;;;;;;0.00;0.00;;;9.00;99.90;;;;;;5089138;28;20020;-74
2023/05/13 01:13:46;;;;;;;0.10;0.10;;;9.00;99.90;;;;;;5099125;28;20741;-75
2023/05/13 01:16:20;;;;;;;0.10;0.10;;;9.10;99.90;;;;;;5095387;28;20075;-75
2023/05/13 01:18:51;;;;;;;0.10;0.10;;;9.20;99.90;;;;;;5104404;28;20103;-75
2023/05/13 01:21:25;;;;;;;0.00;0.00;;;9.20;99.90;;;;;;5095662;28;20024;-81
2023/05/13 01:23:51;;;;;;;0.10;0.10;;;9.30;99.90;;;;;;5095959;28;20157;-79
2023/05/13 01:26:17;;;;;;;0.10;0.10;;;9.30;99.90;;;;;;5091959;28;20502;-75
2023/05/13 01:28:43;;;;;;;0.15;0.15;;;9.30;99.90;;;;;;5103458;28;20024;-76
2023/05/13 01:31:11;;;;;;;0.10;0.10;;;9.30;99.90;;;;;;5105552;28;20031;-76
2023/05/13 01:33:37;;;;;;;0.10;0.10;;;9.20;99.90;;;;;;5102530;28;20012;-75
2023/05/13 01:36:04;;;;;;;0.10;0.10;;;9.20;99.90;;;;;;5094174;28;20648;-79
2023/05/13 01:38:31;;;;;;;0.10;0.10;;;9.20;99.90;;;;;;5100144;28;20029;-76
2023/05/13 01:40:58;;;;;;;0.03;0.03;;;9.10;99.90;;;;;;5099944;28;20050;-76
2023/05/13 01:43:24;;;;;;;0.08;0.08;;;9.00;99.90;;;;;;5098968;28;20220;-77
2023/05/13 01:45:51;;;;;;;0.10;0.10;;;8.90;99.90;;;;;;5099619;28;20016;-79
2023/05/13 01:48:19;;;;;;;0.10;0.10;;;8.90;99.90;;;;;;5098912;28;20008;-76
2023/05/13 01:51:03;;;;;;;0.10;0.10;;;8.90;99.90;;;;;;5097371;28;20036;-74
2023/05/13 01:53:30;;;;;;;0.10;0.10;;;8.90;99.90;;;;;;5095936;28;20043;-77
2023/05/13 01:55:55;;;;;;;0.10;0.10;;;8.90;99.90;;;;;;5101456;28;20084;-74
2023/05/13 01:58:21;;;;;;;0.10;0.10;;;9.00;99.90;;;;;;5093684;28;20073;-77
2023/05/13 02:00:47;;;;;;;0.10;0.10;;;8.90;99.90;;;;;;5105993;28;20016;-75
2023/05/13 02:03:13;;;;;;;0.20;0.20;;;8.90;99.90;;;;;;5106694;28;20020;-75
2023/05/13 02:05:38;;;;;;;0.10;0.10;;;9.00;99.90;;;;;;5105836;28;20032;-76
2023/05/13 02:08:06;;;;;;;0.10;0.10;;;9.00;99.90;;;;;;5105782;28;20143;-75
2023/05/13 02:10:32;;;;;;;0.10;0.10;;;9.00;99.90;;;;;;5102405;28;20032;-77
2023/05/13 02:12:57;;;;;;;0.20;0.20;;;9.00;99.90;;;;;;5105584;28;20031;-75
2023/05/13 02:15:23;;;;;;;0.10;0.10;;;9.00;99.90;;;;;;5109781;28;20065;-75
2023/05/13 02:17:49;;;;;;;0.10;0.10;;;9.00;99.90;;;;;;5106352;28;20456;-75
2023/05/13 02:20:15;;;;;;;0.10;0.10;;;9.00;99.90;;;;;;5100639;28;20077;-74
2023/05/13 02:22:41;;;;;;;0.10;0.10;;;9.00;99.90;;;;;;5104139;28;20090;-75
2023/05/13 02:25:07;;;;;;;0.00;0.00;;;9.10;99.90;;;;;;5104210;28;20036;-75
2023/05/13 02:27:33;;;;;;;0.00;0.00;;;9.10;99.90;;;;;;5105216;28;20032;-74
2023/05/13 02:29:59;;;;;;;0.00;0.00;;;9.10;99.90;;;;;;5095306;28;20024;-75
2023/05/13 02:32:26;;;;;;;0.10;0.10;;;9.20;99.90;;;;;;5104104;28;20418;-74
2023/05/13 02:34:52;;;;;;;0.10;0.10;;;9.20;99.90;;;;;;5105503;28;20031;-76
2023/05/13 02:37:18;;;;;;;1.67;1.58;;;9.20;99.90;;;;;;5090547;28;20020;-75
2023/05/13 02:39:46;;;;;;;0.08;0.08;;;9.20;99.90;;;;;;5104195;28;20016;-76
2023/05/13 02:42:12;;;;;;;0.10;0.10;;;9.30;99.90;;;;;;5101730;28;20027;-75
2023/05/13 02:44:39;;;;;;;0.10;0.10;;;9.40;99.90;;;;;;5092482;28;20016;-75
2023/05/13 02:47:04;;;;;;;0.10;0.10;;;10.00;99.90;;;;;;5098964;28;20027;-75
2023/05/13 02:49:30;;;;;;;0.10;0.10;;;9.40;99.90;;;;;;5106457;28;20024;-75
2023/05/13 02:52:02;;;;;;;0.10;0.10;;;9.40;99.90;;;;;;5106712;28;20024;-74
2023/05/13 02:54:27;;;;;;;0.10;0.10;;;9.40;99.90;;;;;;5099130;28;20044;-76
2023/05/13 02:56:53;;;;;;;0.17;0.17;;;9.40;99.90;;;;;;5105909;28;20039;-77
2023/05/13 02:59:19;;;;;;;0.10;0.10;;;9.30;99.90;;;;;;5107429;28;20023;-78
2023/05/13 03:01:45;;;;;;;0.10;0.10;;;9.30;99.90;;;;;;5095352;28;20024;-75
2023/05/13 03:04:10;;;;;;;0.10;0.10;;;9.20;99.90;;;;;;5103436;28;20020;-75
2023/05/13 03:06:36;;;;;;;0.10;0.10;;;9.20;99.90;;;;;;5101505;28;20084;-75
2023/05/13 03:09:05;;;;;;;0.10;0.10;;;;;;;;;;5092423;28;20024;-75
2023/05/13 03:11:31;;;;;;;0.10;0.10;;;9.10;99.90;;;;;;5102639;28;20020;-75
2023/05/13 03:13:57;;;;;;;0.10;0.10;;;9.10;99.90;;;;;;5091702;28;20028;-73
2023/05/13 03:16:22;;;;;;;0.13;0.13;;;9.10;99.90;;;;;;5095967;28;20185;-75
2023/05/13 03:18:48;;;;;;;0.10;0.10;;;9.10;99.90;;;;;;5098418;28;20032;-76
2023/05/13 03:21:14;;;;;;;0.10;0.10;;;9.10;99.90;;;;;;5099726;28;20024;-78
2023/05/13 03:23:40;;;;;;;0.10;0.10;;;9.10;99.90;;;;;;5097762;28;20038;-75
2023/05/13 03:26:05;;;;;;;0.10;0.10;;;9.00;99.90;;;;;;5101668;28;20057;-76
2023/05/13 03:28:31;;;;;;;0.10;0.10;;;9.30;99.90;;;;;;5097752;28;20072;-75
2023/05/13 03:30:57;;;;;;;0.10;0.10;;;9.30;99.90;;;;;;5097891;28;20028;-75
2023/05/13 03:33:23;;;;;;;0.10;0.10;;;9.30;99.90;;;;;;5086120;28;20027;-78
2023/05/13 03:35:48;;;;;;;0.10;0.10;;;9.30;99.90;;;;;;5088481;28;20442;-74
2023/05/13 03:38:14;;;;;;;0.10;0.10;;;9.30;99.90;;;;;;5101543;28;20033;-78
2023/05/13 03:40:40;;;;;;;0.10;0.10;;;9.20;99.90;;;;;;5097075;28;20030;-75
2023/05/13 03:43:08;;;;;;;0.10;0.10;;;9.20;99.90;;;;;;5087063;28;20350;-77
2023/05/13 03:45:37;;;;;;;0.10;0.10;;;9.20;99.90;;;;;;5098662;28;20028;-75
2023/05/13 03:48:02;;;;;;;0.10;0.10;;;9.20;99.90;;;;;;5096052;28;20024;-75
2023/05/13 03:50:28;;;;;;;0.10;0.10;;;9.20;99.90;;;;;;5094664;28;20035;-74
2023/05/13 03:52:55;;;;;;;0.10;0.10;;;9.20;99.90;;;;;;5089272;28;20078;-75
2023/05/13 03:55:21;;;;;;;0.10;0.10;;;9.20;99.90;;;;;;5093284;28;20044;-76
2023/05/13 03:57:48;;;;;;;0.03;0.03;;;9.10;99.90;;;;;;5091475;28;20054;-76
2023/05/13 04:00:14;;;;;;;0.10;0.10;;;9.20;99.90;;;;;;5091452;28;20028;-79
2023/05/13 04:02:40;;;;;;;0.10;0.10;;;9.20;99.90;;;;;;5086756;28;20024;-74
2023/05/13 04:05:08;;;;;;;0.00;0.00;;;9.20;99.90;;;;;;5093843;28;20400;-75
2023/05/13 04:07:33;;;;;;;0.20;0.20;;;9.30;99.90;;;;;;5096833;28;20043;-76
2023/05/13 04:09:59;;;;;;;34.30;24.75;;;9.30;99.90;;;;;;5096525;28;20020;-76
2023/05/13 04:12:25;;;;;;;1.27;1.27;;;9.30;99.90;;;;;;5090919;28;20342;-75
2023/05/13 04:14:51;;;;;;;0.20;0.20;;;9.40;99.90;;;;;;5095244;28;20032;-76
2023/05/13 04:17:18;;;;;;;0.10;0.10;;;9.70;99.90;;;;;;5101077;28;20075;-76
2023/05/13 04:19:43;;;;;;;0.10;0.10;;;9.50;99.90;;;;;;5096682;28;20024;-74
2023/05/13 04:22:12;;;;;;;0.00;0.00;;;9.60;99.90;;;;;;5097380;28;20057;-76
2023/05/13 04:24:38;;;;;;;0.10;0.10;;;9.70;99.90;;;;;;5095730;28;20222;-75
2023/05/13 04:27:04;;;;;;;4.00;3.40;;;9.80;99.90;;;;;;5096782;28;20123;-76
2023/05/13 04:29:31;;;;;;;2.33;2.22;;;9.90;99.90;;;;;;5100416;28;20067;-77
2023/05/13 04:31:56;;;;;;;35.20;31.67;;;9.80;99.90;;;;;;5101354;28;20024;-75
2023/05/13 04:34:23;;;;;;;2.70;2.60;;;10.10;99.90;;;;;;5097541;28;20028;-76
2023/05/13 04:36:49;;;;;;;2.28;2.17;;;10.10;99.90;;;;;;5104716;28;20058;-75
2023/05/13 04:39:15;;;;;;;0.17;0.17;;;10.20;99.90;;;;;;5099310;28;20414;-77
2023/05/13 04:41:40;;;;;;;0.00;0.00;;;10.20;99.90;;;;;;5099917;28;20023;-74
2023/05/13 04:44:06;;;;;;;0.10;0.10;;;10.30;99.90;;;;;;5100355;28;20774;-76
2023/05/13 04:46:32;;;;;;;0.10;0.10;;;10.40;99.90;;;;;;5100873;28;20020;-76
2023/05/13 04:49:00;;;;;;;0.30;0.30;;;10.40;99.90;;;;;;5101323;28;20086;-78
2023/05/13 04:51:26;;;;;;;0.10;0.10;;;10.30;99.90;;;;;;5098613;28;20068;-77
2023/05/13 04:53:52;;;;;;;0.10;0.10;;;10.30;99.90;;;;;;5095495;28;20129;-77
2023/05/13 04:56:18;;;;;;;0.10;0.10;;;10.30;99.90;;;;;;5095721;28;20028;-75
2023/05/13 04:58:43;;;;;;;0.20;0.20;;;10.30;99.90;;;;;;5093288;28;20647;-75
2023/05/13 05:01:09;;;;;;;0.20;0.20;;;10.20;99.90;;;;;;5091913;28;20197;-75
2023/05/13 05:03:35;;;;;;;0.10;0.10;;;10.00;99.90;;;;;;5086521;28;20085;-76
2023/05/13 05:06:00;;;;;;;0.20;0.20;;;9.90;99.90;;;;;;5088129;28;20064;-77
2023/05/13 05:08:27;;;;;;;0.10;0.10;;;9.90;99.90;;;;;;5087154;28;20035;-76
2023/05/13 05:10:53;;;;;;;0.20;0.20;;;9.90;99.90;;;;;;5087939;28;20020;-76
2023/05/13 05:13:19;;;;;;;0.10;0.10;;;9.90;99.90;;;;;;5088796;28;20379;-75
2023/05/13 05:15:44;;;;;;;0.10;0.10;;;9.90;99.90;;;;;;5090539;28;20020;-76
2023/05/13 05:18:10;;;;;;;0.13;0.13;;;10.00;99.90;;;;;;5088657;28;20336;-78
2023/05/13 05:20:37;;;;;;;0.10;0.10;;;10.10;99.90;;;;;;5089462;28;20224;-75
2023/05/13 05:23:03;;;;;;;0.10;0.10;;;10.20;99.90;;;;;;5089683;28;20107;-74
2023/05/13 05:25:30;;;;;;;0.10;0.10;;;10.30;99.90;;;;;;5090323;28;20117;-75
2023/05/13 05:27:56;;;;;;;0.10;0.10;;;10.40;99.90;;;;;;5090042;28;20051;-76
2023/05/13 05:30:22;;;;;;;0.20;0.20;;;10.60;99.90;;;;;;5089072;28;20517;-77
2023/05/13 05:32:48;;;;;;;0.52;0.52;;;10.60;99.90;;;;;;5094693;28;20037;-75
2023/05/13 05:35:15;;;;;;;0.10;0.10;;;10.60;99.90;;;;;;5091289;28;20274;-76
2023/05/13 05:37:41;;;;;;;0.17;0.17;;;10.60;99.90;;;;;;5089080;28;20043;-77
2023/05/13 05:40:20;;;;;;;0.20;0.20;;;10.60;99.90;;;;;;5085539;28;20075;-75
2023/05/13 05:42:46;;;;;;;2.47;2.38;;;10.40;99.90;;;;;;5089556;28;20020;-76
2023/05/13 05:45:12;;;;;;;0.20;0.20;;;10.40;99.90;;;;;;5085102;28;20399;-77
2023/05/13 05:47:43;;;;;;;0.17;0.17;;;10.40;99.90;;;;;;5089306;28;20092;-76
2023/05/13 05:50:09;;;;;;;0.22;0.22;;;10.40;99.90;;;;;;5086702;28;20034;-75
2023/05/13 05:52:35;;;;;;;0.13;0.13;;;10.20;99.90;;;;;;5087723;28;21411;-75
2023/05/13 05:55:02;;;;;;;0.20;0.20;;;10.30;99.90;;;;;;5087662;28;20509;-75
2023/05/13 05:57:28;;;;;;;0.10;0.10;;;10.30;99.90;;;;;;5088898;28;20324;-77
2023/05/13 05:59:53;;;;;;;0.50;0.50;;;10.40;99.90;;;;;;5094824;28;20085;-77
2023/05/13 06:02:19;;;;;;;0.20;0.20;;;10.50;99.90;;;;;;5096515;28;20074;-76
2023/05/13 06:04:45;;;;;;;0.10;0.10;;;10.60;99.90;;;;;;5098159;28;20024;-74
2023/05/13 06:07:10;;;;;;;0.20;0.20;;;10.70;99.90;;;;;;5094060;28;20040;-75
2023/05/13 06:09:36;;;;;;;0.15;0.15;;;10.80;99.90;;;;;;5095911;28;20020;-75
2023/05/13 06:12:03;;;;;;;0.35;0.35;;;11.00;99.90;;;;;;5095010;28;20031;-74
2023/05/13 06:14:29;;;;;;;0.20;0.20;;;11.10;99.90;;;;;;5096261;28;20028;-75
2023/05/13 06:16:55;;;;;;;0.20;0.20;;;11.30;99.90;;;;;;5089682;28;20115;-75
2023/05/13 06:19:20;;;;;;;1.55;1.55;;;11.40;99.90;;;;;;5094870;28;20274;-76
2023/05/13 06:21:47;;;;;;;0.28;0.28;;;;;;;;;;5088214;28;20032;-78
2023/05/13 06:24:13;;;;;;;0.13;0.13;;;11.60;99.90;;;;;;5083351;28;20023;-78
2023/05/13 06:26:39;;;;;;;0.10;0.10;;;11.70;99.90;;;;;;5082000;28;20135;-75
2023/05/13 06:29:05;;;;;;;0.17;0.17;;;11.80;99.90;;;;;;5081238;28;20331;-75
2023/05/13 06:31:31;;;;;;;0.52;0.52;;;12.00;99.90;;;;;;5080761;28;20382;-76
2023/05/13 06:33:56;;;;;;;0.20;0.20;;;12.20;99.90;;;;;;5080458;28;20109;-76
2023/05/13 06:36:22;;;;;;;4.53;4.32;;;12.30;99.90;;;;;;5079594;28;20039;-75
2023/05/13 06:38:48;;;;;;;0.20;0.20;;;12.40;99.90;;;;;;5080436;28;20052;-79
2023/05/13 06:41:14;;;;;;;5.93;5.47;;;12.50;99.90;;;;;;5080408;28;20097;-75
2023/05/13 06:43:40;;;;;;;0.20;0.20;;;12.70;99.90;;;;;;5080477;28;20479;-79
2023/05/13 06:46:06;;;;;;;0.10;0.10;;;12.70;99.90;;;;;;5078635;28;20023;-77
2023/05/13 06:48:31;;;;;;;0.20;0.20;;;12.90;99.90;;;;;;5080330;28;20571;-76
2023/05/13 06:50:57;;;;;;;0.20;0.20;;;13.00;99.90;;;;;;5080141;28;20383;-75
2023/05/13 06:53:23;;;;;;;2.85;2.65;;;13.10;99.90;;;;;;5079330;28;20038;-76
2023/05/13 06:55:49;;;;;;;0.30;0.30;;;13.20;99.90;;;;;;5080179;28;20545;-75
2023/05/13 06:58:14;;;;;;;0.20;0.20;;;13.30;99.90;;;;;;5079570;28;20051;-80
2023/05/13 07:00:40;;;;;;;0.20;0.20;;;13.50;99.90;;;;;;5079906;28;20467;-82
2023/05/13 07:03:06;;;;;;;0.38;0.38;;;13.60;99.90;;;;;;5079955;28;20205;-75
2023/05/13 07:05:33;;;;;;;1.35;1.33;;;13.80;99.90;;;;;;5079190;28;20028;-75
2023/05/13 07:07:59;;;;;;;0.20;0.20;;;13.70;99.90;;;;;;5079282;28;20050;-75
2023/05/13 07:10:25;;;;;;;0.20;0.20;;;13.80;99.90;;;;;;5079020;28;20701;-74
2023/05/13 07:12:50;;;;;;;0.43;0.43;;;13.80;99.90;;;;;;5079460;28;20028;-76
2023/05/13 07:15:16;;;;;;;0.10;0.10;;;14.00;99.90;;;;;;5080218;28;20024;-81
2023/05/13 07:17:42;;;;;;;0.10;0.10;;;14.00;99.90;;;;;;5080048;28;20027;-78
2023/05/13 07:20:08;;;;;;;0.20;0.20;;;14.20;99.90;;;;;;5079549;28;20198;-84
2023/05/13 07:22:34;;;;;;;0.10;0.10;;;14.40;99.90;;;;;;5078949;28;20015;-79
2023/05/13 07:25:00;;;;;;;0.20;0.20;;;14.50;99.90;;;;;;5079048;28;20021;-73
2023/05/13 07:27:26;;;;;;;0.20;0.20;;;14.40;99.90;;;;;;5079245;28;20044;-78
2023/05/13 07:29:52;;;;;;;0.20;0.20;;;14.50;99.90;;;;;;5080051;28;20019;-79
2023/05/13 07:32:18;;;;;;;0.10;0.10;;;14.60;99.90;;;;;;5078911;28;20028;-80
2023/05/13 07:34:44;;;;;;;0.20;0.20;;;14.70;99.90;;;;;;5079060;28;20749;-74
2023/05/13 07:37:10;;;;;;;2.35;2.17;;;14.70;99.90;;;;;;5079039;28;20722;-82
2023/05/13 07:39:35;;;;;;;1.17;1.17;;;14.90;99.90;;;;;;5078861;28;20028;-79
2023/05/13 07:42:02;;;;;;;0.20;0.20;;;15.00;99.90;;;;;;5079293;28;20051;-81
2023/05/13 07:44:28;;;;;;;0.15;0.15;;;15.10;99.90;;;;;;5079093;28;20024;-76
2023/05/13 07:46:54;;;;;;;0.10;0.10;;;15.10;99.90;;;;;;5078712;28;20024;-73
2023/05/13 07:49:20;;;;;;;0.50;0.50;;;15.10;99.90;;;;;;5078836;28;20016;-77
2023/05/13 07:51:46;;;;;;;0.10;0.10;;;15.20;99.90;;;;;;5078894;28;20529;-78
2023/05/13 07:54:12;;;;;;;0.30;0.30;;;15.10;99.90;;;;;;5078169;28;20040;-74
2023/05/13 07:56:38;;;;;;;0.10;0.10;;;15.30;99.90;;;;;;5078411;28;20510;-76
2023/05/13 07:59:04;;;;;;;0.20;0.20;;;15.50;99.90;;;;;;5078940;28;20023;-74
2023/05/13 08:01:29;;;;;;;0.20;0.20;;;15.60;99.90;;;;;;5077893;28;20080;-74
2023/05/13 08:03:55;;;;;;;0.10;0.10;;;15.70;99.90;;;;;;5078907;28;20024;-75
2023/05/13 08:06:21;;;;;;;0.10;0.10;;;15.70;99.90;;;;;;5077226;28;20032;-79
2023/05/13 08:08:47;;;;;;;0.10;0.10;;;15.80;99.90;;;;;;5078794;28;20689;-75
2023/05/13 08:11:12;;;;;;;0.10;0.10;;;15.80;99.90;;;;;;5078263;28;20700;-75
2023/05/13 08:13:38;;;;;;;0.20;0.20;;;15.90;99.90;;;;;;5077173;28;20024;-80
2023/05/13 08:16:06;;;;;;;0.20;0.20;;;15.90;99.90;;;;;;5078270;28;20012;-76
2023/05/13 08:18:31;;;;;;;0.20;0.20;;;16.00;99.90;;;;;;5078461;28;20027;-80
2023/05/13 08:20:57;;;;;;;0.90;0.90;;;16.20;99.90;;;;;;5076553;28;20016;-79
2023/05/13 08:23:24;;;;;;;0.10;0.10;;;16.20;99.90;;;;;;5077875;28;20021;-79
2023/05/13 08:25:50;;;;;;;0.80;0.80;;;16.10;99.90;;;;;;5077917;28;20220;-76
2023/05/13 08:28:16;;;;;;;0.20;0.20;;;16.00;99.90;;;;;;5078205;28;20020;-77
2023/05/13 08:30:43;;;;;;;0.10;0.10;;;16.10;99.90;;;;;;5077796;28;20028;-79
2023/05/13 08:33:12;;;;;;;0.30;0.30;;;16.20;99.90;;;;;;5077457;28;20020;-76
2023/05/13 08:35:38;;;;;;;2.20;2.10;;;16.10;99.90;;;;;;5077781;28;20032;-79
2023/05/13 08:38:04;;;;;;;0.10;0.10;;;16.00;99.90;;;;;;5078219;28;20031;-83
2023/05/13 08:40:31;;;;;;;0.20;0.20;;;13.50;99.90;;;;;;5078234;28;20008;-76
2023/05/13 08:43:00;;;;;;;0.10;0.10;;;16.10;99.90;;;;;;5077719;28;20028;-74
2023/05/13 08:45:29;;;;;;;0.20;0.20;;;16.10;99.90;;;;;;5076481;28;20035;-78
2023/05/13 08:48:00;;;;;;;0.20;0.20;;;16.20;99.90;;;;;;5077596;28;20028;-77
2023/05/13 08:50:28;;;;;;;0.20;0.20;;;16.60;99.90;;;;;;5077739;28;20539;-77
2023/05/13 08:52:54;;;;;;;0.80;0.80;;;16.70;99.90;;;;;;5078113;28;20883;-80
2023/05/13 08:55:23;;;;;;;8.80;8.32;;;17.10;99.90;;;;;;5077461;28;20235;-74
2023/05/13 08:57:52;;;;;;;0.20;0.20;;;16.90;99.90;;;;;;5075798;28;20727;-74
2023/05/13 09:00:18;;;;;;;0.20;0.20;;;16.60;99.90;;;;;;5077091;28;20672;-80
2023/05/13 09:02:44;;;;;;;1.05;1.05;;;16.60;99.90;;;;;;5075261;28;20020;-78
2023/05/13 09:05:10;;;;;;;0.20;0.20;;;16.60;99.90;;;;;;5076917;28;20273;-73
2023/05/13 09:07:36;;;;;;;1.20;0.98;;;16.60;99.90;;;;;;5076844;28;20040;-77
2023/05/13 09:10:07;;;;;;;0.65;0.65;;;16.60;99.90;;;;;;5076631;28;20031;-75
2023/05/13 09:12:53;;;;;;;0.10;0.10;;;16.40;99.90;;;;;;5077106;28;20316;-74
2023/05/13 09:15:23;;;;;;;0.20;0.20;;;16.30;99.90;;;;;;5076889;28;20024;-75
2023/05/13 09:18:00;;;;;;;4.07;3.83;;;16.20;99.90;;;;;;5074768;28;20311;-75
2023/05/13 09:20:29;;;;;;;0.17;0.17;;;16.20;99.90;;;;;;5076718;28;20024;-81
2023/05/13 09:23:07;;;;;;;0.20;0.20;;;16.20;99.90;;;;;;5076747;28;20027;-73
2023/05/13 09:25:34;;;;;;;0.10;0.10;;;16.20;99.90;;;;;;5077016;28;20038;-76
2023/05/13 09:28:02;;;;;;;15.70;5.97;;;16.70;99.90;;;;;;5076653;28;20043;-74
2023/05/13 09:30:34;;;;;;;0.10;0.10;;;17.00;99.90;;;;;;5075463;28;20468;-74
2023/05/13 09:33:09;;;;;;;0.20;0.20;;;17.50;99.90;;;;;;5077958;28;20024;-75
2023/05/13 09:35:40;;;;;;;1.02;1.02;;;17.90;99.90;;;;;;5081030;28;20035;-76
2023/05/13 09:38:26;;;;;;;0.52;0.52;;;18.20;99.90;;;;;;5081158;28;20048;-81
2023/05/13 09:40:57;;;;;;;0.10;0.10;;;18.40;99.90;;;;;;5080924;28;20705;-81
2023/05/13 09:43:26;;;;;;;0.47;0.47;;;18.40;99.90;;;;;;5079332;28;20024;-76
2023/05/13 09:45:59;;;;;;;0.10;0.10;;;18.00;99.90;;;;;;5080389;28;20024;-76
2023/05/13 09:48:26;;;;;;;0.20;0.20;;;18.00;99.90;;;;;;5079363;28;20122;-75
2023/05/13 09:50:53;;;;;;;0.55;0.55;;;18.10;99.90;;;;;;5080352;28;20020;-81
2023/05/13 09:53:19;;;;;;;0.15;0.15;;;18.20;99.90;;;;;;5080882;28;20036;-75
2023/05/13 09:55:50;;;;;;;0.40;0.40;;;18.40;99.90;;;;;;5080634;28;20040;-75
2023/05/13 09:58:18;;;;;;;0.15;0.15;;;18.60;99.90;;;;;;5081030;28;20020;-75
2023/05/13 10:00:45;;;;;;;0.20;0.20;;;20.10;99.90;;;;;;5080782;28;20573;-76
2023/05/13 10:03:10;;;;;;;0.15;0.15;;;18.80;99.90;;;;;;5080549;28;20073;-79
2023/05/13 10:05:38;;;;;;;0.30;0.30;;;18.80;99.90;;;;;;5080815;28;20020;-77
2023/05/13 10:08:06;;;;;;;0.82;0.82;;;18.40;99.90;;;;;;5081073;28;20029;-81
2023/05/13 10:10:34;;;;;;;0.10;0.10;;;18.10;99.90;;;;;;5080380;28;20510;-75
2023/05/13 10:13:13;;;;;;;0.40;0.40;;;17.80;99.90;;;;;;5080930;28;20081;-77
2023/05/13 10:15:50;;;;;;;0.73;0.73;;;17.40;99.90;;;;;;5081622;28;20012;-75
2023/05/13 10:18:18;;;;;;;0.10;0.10;;;17.00;99.90;;;;;;5081664;28;20024;-80
2023/05/13 10:20:44;;;;;;;0.90;0.90;;;15.70;99.90;;;;;;5080258;28;20026;-76
2023/05/13 10:23:11;;;;;;;0.20;0.20;;;16.60;99.90;;;;;;5079574;28;20025;-87
2023/05/13 10:25:37;;;;;;;0.13;0.13;;;16.40;99.90;;;;;;5081038;28;20024;-79
2023/05/13 10:28:04;;;;;;;0.10;0.10;;;16.20;99.90;;;;;;5079988;28;20036;-77
2023/05/13 10:30:31;;;;;;;0.20;0.20;;;16.10;99.90;;;;;;5080223;28;20016;-86
2023/05/13 10:32:58;;;;;;;0.30;0.30;;;15.80;99.90;;;;;;5080058;28;20105;-77
2023/05/13 10:35:28;;;;;;;4.95;4.57;;;15.70;99.90;;;;;;5080689;28;20012;-81
2023/05/13 10:38:29;;;;;;;0.10;0.10;;;15.70;99.90;;;;;;5080487;28;20023;-81
2023/05/13 10:41:09;;;;;;;1.75;1.65;;;15.80;99.90;;;;;;5016905;28;20038;-78
2023/05/13 10:43:36;;;;;;;0.20;0.20;;;15.90;99.90;;;;;;5016892;28;20026;-79
2023/05/13 10:46:03;;;;;;;0.40;0.40;;;15.90;99.90;;;;;;4998948;28;20029;-82
2023/05/13 10:48:54;;;;;;;1.45;1.45;;;16.10;99.90;;;;;;5016971;28;20034;-84
2023/05/13 10:51:24;;;;;;;0.10;0.10;;;16.20;99.90;;;;;;5016880;28;20040;-77
2023/05/13 10:53:52;;;;;;;0.10;0.10;;;16.40;99.90;;;;;;5016717;28;20696;-77
2023/05/13 10:56:26;;;;;;;1.75;1.65;;;16.50;99.90;;;;;;5017199;28;20041;-80
2023/05/13 10:59:01;;;;;;;0.20;0.20;;;16.60;99.90;;;;;;5017551;28;20261;-73
2023/05/13 11:01:42;;;;;;;0.20;0.20;;;16.80;99.90;;;;;;5017219;28;20025;-76
2023/05/13 11:04:15;;;;;;;0.20;0.20;;;16.90;99.90;;;;;;5021741;28;20037;-78
2023/05/13 11:06:43;;;;;;;0.20;0.20;;;17.10;99.90;;;;;;5020461;28;20060;-77
2023/05/13 11:09:12;;;;;;;0.65;0.65;;;17.20;99.90;;;;;;5000926;28;20029;-74
2023/05/13 11:11:38;;;;;;;2.45;2.33;;;17.40;99.90;;;;;;5017222;28;20033;-74
2023/05/13 11:14:17;;;;;;;0.10;0.10;;;17.30;99.90;;;;;;5017060;28;20036;-73
2023/05/13 11:17:05;;;;;;;0.10;0.10;;;17.50;99.90;;;;;;5031482;28;20040;-73
2023/05/13 11:19:59;;;;;;;0.20;0.20;;;17.60;99.90;;;;;;5079929;28;20076;-74
2023/05/13 11:22:28;;;;;;;2.15;2.00;;;17.50;99.90;;;;;;5076432;28;20736;-83
2023/05/13 11:25:08;;;;;;;0.85;0.85;;;17.80;99.90;;;;;;5079904;28;20127;-74
2023/05/13 11:27:45;;;;;;;0.10;0.10;;;18.00;99.90;;;;;;5079659;28;20036;-75
2023/05/13 11:30:27;;;;;;;5.82;5.43;;;18.20;99.90;;;;;;5079864;28;20062;-83
2023/05/13 11:32:57;;;;;;;0.20;0.20;;;18.30;99.90;;;;;;5079773;28;20689;-81
2023/05/13 11:35:27;;;;;;;0.68;0.68;;;18.40;99.90;;;;;;5079762;28;20031;-84
2023/05/13 11:37:58;;;;;;;0.30;0.30;;;15.20;99.90;;;;;;5080051;28;20020;-75
2023/05/13 11:40:28;;;;;;;0.20;0.20;;;18.40;99.90;;;;;;5079296;28;20113;-79
2023/05/13 11:42:55;;;;;;;0.20;0.20;;;18.30;99.90;;;;;;5079530;28;20020;-75
2023/05/13 11:45:22;;;;;;;1.10;1.08;;;18.20;99.90;;;;;;5079624;28;20664;-73
2023/05/13 11:47:49;;;;;;;0.10;0.10;;;18.30;99.90;;;;;;5079471;28;20036;-75
2023/05/13 11:50:29;;;;;;;0.10;0.10;;;18.50;99.90;;;;;;5083472;28;20051;-83
2023/05/13 11:53:04;;;;;;;0.10;0.10;;;18.40;99.90;;;;;;5082282;28;20036;-74
2023/05/13 11:55:33;;;;;;;0.10;0.10;;;18.40;99.90;;;;;;5082479;28;20052;-83
2023/05/13 11:57:59;;;;;;;0.10;0.10;;;18.50;99.90;;;;;;5084201;28;20028;-77
2023/05/13 12:00:26;;;;;;;0.20;0.20;;;18.50;99.90;;;;;;5081185;28;20687;-74
2023/05/13 12:02:52;;;;;;;0.10;0.10;;;18.60;99.90;;;;;;5079624;28;20055;-75
2023/05/13 12:05:18;;;;;;;0.10;0.10;;;18.40;99.90;;;;;;5078742;28;20051;-84
2023/05/13 12:07:44;;;;;;;0.20;0.20;;;18.50;99.90;;;;;;5079428;28;20055;-75
2023/05/13 12:10:10;;;;;;;0.10;0.10;;;18.40;99.90;;;;;;5078998;28;20089;-82
2023/05/13 12:12:42;;;;;;;0.20;0.20;;;18.30;99.90;;;;;;5078484;28;20126;-80
2023/05/13 12:15:18;;;;;;;0.10;0.10;;;18.20;99.90;;;;;;5078724;28;20043;-77
2023/05/13 12:17:44;;;;;;;0.10;0.10;;;18.10;99.90;;;;;;5078818;28;20107;-75
2023/05/13 12:20:17;;;;;;;0.10;0.10;;;15.80;99.90;;;;;;5078758;28;20497;-79
2023/05/13 12:22:42;;;;;;;0.20;0.20;;;18.00;99.90;;;;;;5078953;28;20024;-79
2023/05/13 12:25:36;;;;;;;1.65;1.48;;;17.90;99.90;;;;;;5078796;28;20036;-83
2023/05/13 12:28:09;;;;;;;;;;;18.00;99.90;;;;;;5079433;28;20042;-74
2023/05/13 12:30:37;;;;;;;0.10;0.10;;;17.70;99.90;;;;;;5076944;28;19900;-83
2023/05/13 12:33:03;;;;;;;0.20;0.20;;;17.70;99.90;;;;;;5078371;28;20699;-80
2023/05/13 12:35:30;;;;;;;0.13;0.13;;;18.10;99.90;;;;;;5078254;28;20299;-84
2023/05/13 12:38:01;;;;;;;0.20;0.20;;;18.80;99.90;;;;;;5078221;28;20016;-78
2023/05/13 12:40:26;;;;;;;0.20;0.20;;;19.40;99.90;;;;;;5077112;28;20030;-79
2023/05/13 12:42:58;;;;;;;0.20;0.20;;;19.30;97.50;;;;;;5059718;28;20024;-78
2023/05/13 12:45:29;;;;;;;0.10;0.10;;;19.10;98.00;;;;;;5077805;28;20085;-83
2023/05/13 12:47:55;;;;;;;0.20;0.20;;;19.20;97.70;;;;;;5077810;28;20473;-80
2023/05/13 12:50:22;;;;;;;0.10;0.10;;;18.80;99.40;;;;;;5078343;28;20167;-79
2023/05/13 12:52:48;;;;;;;0.30;0.30;;;18.60;99.90;;;;;;5078403;28;20024;-78
2023/05/13 12:55:14;;;;;;;0.10;0.10;;;18.50;99.90;;;;;;5078067;28;20125;-78